createdAt,value
2022-09-21T00:01:09.440Z,8.40
2022-09-21T00:03:36.598Z,8.40
2022-09-21T00:06:04.278Z,8.40
2022-09-21T00:08:30.943Z,8.40
2022-09-21T00:10:57.582Z,8.50
2022-09-21T00:13:25.022Z,8.50
2022-09-21T00:15:52.149Z,8.50
2022-09-21T00:18:18.774Z,8.50
2022-09-21T00:20:45.368Z,8.50
2022-09-21T00:23:12.057Z,8.50
2022-09-21T00:25:38.887Z,8.50
2022-09-21T00:28:05.507Z,8.50
2022-09-21T00:30:32.186Z,8.50
2022-09-21T00:32:58.790Z,8.40
2022-09-21T00:35:25.650Z,8.40
2022-09-21T00:37:52.261Z,8.40
2022-09-21T00:40:20.880Z,8.50
2022-09-21T00:42:47.916Z,8.50
2022-09-21T00:45:21.243Z,8.50
2022-09-21T00:47:50.662Z,8.40
2022-09-21T00:50:19.781Z,8.40
2022-09-21T00:52:52.059Z,8.50
2022-09-21T00:55:18.679Z,8.50
2022-09-21T00:57:47.093Z,8.50
2022-09-21T01:00:14.594Z,8.50
2022-09-21T01:02:41.211Z,8.50
2022-09-21T01:05:08.536Z,8.50
2022-09-21T01:07:37.004Z,8.50
2022-09-21T01:10:06.610Z,8.50
2022-09-21T01:12:49.341Z,8.50
2022-09-21T01:15:34.789Z,8.50
2022-09-21T01:18:06.327Z,8.50
2022-09-21T01:20:33.040Z,8.40
2022-09-21T01:23:02.666Z,8.50
2022-09-21T01:25:33.729Z,8.40
2022-09-21T01:28:00.345Z,8.50
2022-09-21T01:30:27.270Z,8.50
2022-09-21T01:33:20.438Z,8.40
2022-09-21T01:35:49.305Z,8.40
2022-09-21T01:38:19.478Z,8.40
2022-09-21T01:40:51.498Z,8.40
2022-09-21T01:43:25.374Z,8.40
2022-09-21T01:45:53.990Z,8.40
2022-09-21T01:48:22.329Z,8.50
2022-09-21T01:50:51.741Z,8.40
2022-09-21T01:53:22.661Z,8.40
2022-09-21T01:55:51.879Z,8.40
2022-09-21T01:58:33.578Z,8.40
2022-09-21T02:01:00.705Z,8.40
2022-09-21T02:03:34.874Z,8.30
2022-09-21T02:06:02.547Z,8.30
2022-09-21T02:08:33.034Z,8.30
2022-09-21T02:11:03.228Z,8.30
2022-09-21T02:13:34.505Z,8.30
2022-09-21T02:16:01.157Z,8.30
2022-09-21T02:18:33.944Z,8.30
2022-09-21T02:21:02.592Z,8.40
2022-09-21T02:23:32.799Z,8.30
2022-09-21T02:26:03.434Z,8.30
2022-09-21T02:28:51.188Z,8.30
2022-09-21T02:31:37.102Z,8.30
2022-09-21T02:34:09.906Z,8.30
2022-09-21T02:36:45.090Z,8.20
2022-09-21T02:39:15.909Z,8.20
2022-09-21T02:41:42.516Z,8.20
2022-09-21T02:44:16.882Z,8.20
2022-09-21T02:46:49.975Z,8.30
2022-09-21T02:49:19.222Z,8.30
2022-09-21T02:51:48.056Z,8.30
2022-09-21T02:54:16.748Z,8.30
2022-09-21T02:56:45.335Z,8.20
2022-09-21T02:59:12.183Z,8.30
2022-09-21T03:01:39.478Z,8.30
2022-09-21T03:04:06.308Z,8.30
2022-09-21T03:06:33.610Z,8.30
2022-09-21T03:09:00.499Z,8.30
2022-09-21T03:11:27.165Z,8.30
2022-09-21T03:13:53.823Z,8.40
2022-09-21T03:16:21.334Z,8.40
2022-09-21T03:18:48.644Z,8.30
2022-09-21T03:21:15.255Z,8.30
2022-09-21T03:23:41.874Z,8.30
2022-09-21T03:26:08.765Z,8.30
2022-09-21T03:28:35.576Z,8.30
2022-09-21T03:31:02.440Z,8.30
2022-09-21T03:33:29.221Z,8.30
2022-09-21T03:35:55.876Z,8.30
2022-09-21T03:38:22.574Z,8.30
2022-09-21T03:40:49.251Z,8.30
2022-09-21T03:43:16.781Z,8.30
2022-09-21T03:45:43.785Z,8.20
2022-09-21T03:48:11.553Z,8.20
2022-09-21T03:50:38.669Z,8.20
2022-09-21T03:53:05.823Z,8.20
2022-09-21T03:55:33.239Z,8.20
2022-09-21T03:58:00.108Z,8.20
2022-09-21T04:00:26.741Z,8.20
2022-09-21T04:02:53.444Z,8.20
2022-09-21T04:05:20.796Z,8.20
2022-09-21T04:07:47.467Z,8.20
2022-09-21T04:10:15.465Z,8.20
2022-09-21T04:12:43.364Z,8.20
2022-09-21T04:15:14.264Z,8.20
2022-09-21T04:17:41.051Z,8.20
2022-09-21T04:20:08.772Z,8.20
2022-09-21T04:22:39.940Z,8.20
2022-09-21T04:25:10.122Z,8.20
2022-09-21T04:27:36.758Z,8.10
2022-09-21T04:30:03.740Z,8.20
2022-09-21T04:32:30.368Z,8.10
2022-09-21T04:34:57.102Z,8.10
2022-09-21T04:37:23.838Z,8.00
2022-09-21T04:39:50.548Z,8.00
2022-09-21T04:42:17.224Z,8.00
2022-09-21T04:44:43.838Z,7.90
2022-09-21T04:47:10.550Z,7.80
2022-09-21T04:49:38.463Z,7.80
2022-09-21T04:52:05.539Z,7.70
2022-09-21T04:54:32.183Z,7.70
2022-09-21T04:56:58.809Z,7.60
2022-09-21T04:59:25.577Z,7.60
2022-09-21T05:01:52.254Z,7.50
2022-09-21T05:04:18.894Z,7.50
2022-09-21T05:06:45.554Z,7.50
2022-09-21T05:09:31.061Z,7.50
2022-09-21T05:11:57.970Z,7.40
2022-09-21T05:14:24.595Z,7.40
2022-09-21T05:16:51.220Z,7.40
2022-09-21T05:19:17.960Z,7.40
2022-09-21T05:21:44.646Z,7.30
2022-09-21T05:24:11.296Z,7.30
2022-09-21T05:26:38.043Z,7.30
2022-09-21T05:29:04.938Z,7.30
2022-09-21T05:31:37.771Z,7.20
2022-09-21T05:34:11.795Z,7.10
2022-09-21T05:36:57.283Z,7.10
2022-09-21T05:39:24.025Z,7.20
2022-09-21T05:41:50.910Z,7.20
2022-09-21T05:44:18.159Z,7.20
2022-09-21T05:46:56.035Z,7.20
2022-09-21T05:49:23.103Z,7.20
2022-09-21T05:52:05.123Z,7.20
2022-09-21T05:54:40.962Z,7.20
2022-09-21T05:57:17.474Z,7.20
2022-09-21T06:00:01.115Z,7.20
2022-09-21T06:02:33.761Z,7.10
2022-09-21T06:05:01.923Z,7.10
2022-09-21T06:07:28.505Z,7.20
2022-09-21T06:09:55.165Z,7.20
2022-09-21T06:12:21.855Z,7.20
2022-09-21T06:14:48.502Z,7.20
2022-09-21T06:17:15.236Z,7.30
2022-09-21T06:19:41.921Z,7.30
2022-09-21T06:22:08.577Z,7.30
2022-09-21T06:24:35.192Z,7.40
2022-09-21T06:27:01.827Z,7.40
2022-09-21T06:29:28.456Z,7.40
2022-09-21T06:31:55.243Z,7.50
2022-09-21T06:34:21.891Z,7.50
2022-09-21T06:36:48.580Z,7.60
2022-09-21T06:39:15.213Z,7.70
2022-09-21T06:41:41.846Z,7.70
2022-09-21T06:44:08.499Z,7.80
2022-09-21T06:46:35.155Z,7.80
2022-09-21T06:49:01.852Z,7.90
2022-09-21T06:51:28.537Z,7.90
2022-09-21T06:53:56.166Z,8.00
2022-09-21T06:56:22.830Z,8.00
2022-09-21T06:58:49.470Z,8.10
2022-09-21T07:01:16.331Z,8.10
2022-09-21T07:03:43.477Z,8.20
2022-09-21T07:06:15.495Z,8.20
2022-09-21T07:11:29.238Z,8.30
2022-09-21T07:13:59.240Z,8.40
2022-09-21T07:16:25.940Z,8.40
2022-09-21T07:18:52.589Z,8.50
2022-09-21T07:21:19.225Z,8.60
2022-09-21T07:23:45.885Z,8.60
2022-09-21T07:26:13.306Z,8.60
2022-09-21T07:28:40.411Z,8.70
2022-09-21T07:31:08.799Z,8.70
2022-09-21T07:33:36.340Z,8.80
2022-09-21T07:36:10.016Z,8.90
2022-09-21T07:38:37.930Z,9.00
2022-09-21T07:41:04.697Z,9.00
2022-09-21T07:43:31.375Z,9.10
2022-09-21T07:45:58.006Z,9.20
2022-09-21T07:48:25.182Z,9.20
2022-09-21T07:50:51.816Z,9.30
2022-09-21T07:53:18.475Z,9.40
2022-09-21T07:55:45.157Z,9.40
2022-09-21T07:58:31.027Z,9.40
2022-09-21T08:00:57.694Z,9.50
2022-09-21T08:03:24.400Z,9.50
2022-09-21T08:05:51.326Z,9.70
2022-09-21T08:08:20.865Z,9.80
2022-09-21T08:10:47.607Z,9.80
2022-09-21T08:13:14.219Z,9.90
2022-09-21T08:15:50.203Z,10.00
2022-09-21T08:18:17.075Z,10.00
2022-09-21T08:20:48.103Z,10.10
2022-09-21T08:23:17.107Z,10.10
2022-09-21T08:25:44.556Z,10.20
2022-09-21T08:28:11.459Z,10.30
2022-09-21T08:30:38.166Z,10.30
2022-09-21T08:33:04.779Z,10.40
2022-09-21T08:35:31.485Z,10.50
2022-09-21T08:37:58.210Z,10.50
2022-09-21T08:40:25.007Z,10.70
2022-09-21T08:42:55.313Z,10.80
2022-09-21T08:45:22.501Z,11.00
2022-09-21T08:47:57.196Z,11.10
2022-09-21T08:50:41.993Z,11.20
2022-09-21T08:53:17.830Z,11.40
2022-09-21T08:55:44.443Z,11.50
2022-09-21T08:58:31.393Z,11.70
2022-09-21T09:01:07.321Z,11.80
2022-09-21T09:03:40.039Z,11.90
2022-09-21T09:06:13.543Z,11.80
2022-09-21T09:08:46.230Z,11.70
2022-09-21T09:11:21.938Z,11.60
2022-09-21T09:14:00.766Z,11.50
2022-09-21T09:16:30.528Z,11.40
2022-09-21T09:19:16.339Z,11.40
2022-09-21T09:21:43.574Z,11.50
2022-09-21T09:24:27.449Z,11.50
2022-09-21T09:26:59.762Z,11.60
2022-09-21T09:29:32.214Z,11.50
2022-09-21T09:32:00.217Z,11.50
2022-09-21T09:34:37.958Z,11.40
2022-09-21T09:37:15.279Z,11.40
2022-09-21T09:39:43.325Z,11.40
2022-09-21T09:42:16.674Z,11.40
2022-09-21T09:45:03.582Z,11.40
2022-09-21T09:47:42.212Z,11.40
2022-09-21T09:50:19.993Z,11.40
2022-09-21T09:52:47.374Z,11.50
2022-09-21T09:55:34.398Z,11.50
2022-09-21T09:58:01.907Z,11.40
2022-09-21T10:00:29.078Z,11.40
2022-09-21T10:02:59.105Z,11.30
2022-09-21T10:05:32.140Z,11.20
2022-09-21T10:07:58.896Z,11.20
2022-09-21T10:10:28.494Z,11.20
2022-09-21T10:12:56.253Z,11.20
2022-09-21T10:15:26.026Z,11.20
2022-09-21T10:18:04.003Z,11.20
2022-09-21T10:20:32.963Z,11.20
2022-09-21T10:23:00.223Z,11.30
2022-09-21T10:25:27.024Z,11.40
2022-09-21T10:27:55.631Z,11.50
2022-09-21T10:30:33.483Z,11.60
2022-09-21T10:33:00.486Z,11.60
2022-09-21T10:35:27.266Z,11.70
2022-09-21T10:38:10.201Z,11.90
2022-09-21T11:32:05.797Z,13.80
2022-09-21T11:35:02.606Z,13.90
2022-09-21T11:37:29.210Z,14.10
2022-09-21T11:40:17.980Z,13.90
2022-09-21T11:42:58.122Z,13.90
2022-09-21T11:45:38.701Z,14.00
2022-09-21T11:48:20.640Z,13.90
2022-09-21T11:51:01.107Z,13.70
2022-09-21T11:53:40.362Z,13.70
2022-09-21T11:56:10.180Z,13.80
2022-09-21T11:58:44.477Z,13.80
2022-09-21T12:01:31.768Z,13.90
2022-09-21T12:03:58.402Z,13.90
2022-09-21T12:06:28.245Z,13.80
2022-09-21T12:09:10.201Z,13.80
2022-09-21T12:11:39.817Z,13.80
2022-09-21T12:14:26.919Z,13.70
2022-09-21T12:16:59.060Z,13.60
2022-09-21T12:19:40.287Z,13.70
2022-09-21T12:22:17.854Z,13.80
2022-09-21T12:24:47.263Z,14.00
2022-09-21T12:27:20.226Z,14.20
2022-09-21T12:29:49.352Z,14.10
2022-09-21T12:32:27.392Z,14.10
2022-09-21T12:34:56.487Z,14.30
2022-09-21T12:37:41.600Z,14.30
2022-09-21T12:40:21.366Z,14.50
2022-09-21T12:43:03.053Z,14.60
2022-09-21T12:45:34.903Z,14.80
2022-09-21T12:48:12.832Z,14.70
2022-09-21T12:51:05.032Z,14.80
2022-09-21T12:53:34.131Z,14.90
2022-09-21T12:56:01.323Z,14.90
2022-09-21T12:58:29.731Z,14.90
2022-09-21T13:00:56.637Z,15.00
2022-09-21T13:03:40.532Z,15.10
2022-09-21T13:06:26.862Z,15.10
2022-09-21T13:08:53.703Z,15.30
2022-09-21T13:11:22.051Z,15.60
2022-09-21T13:13:54.324Z,15.90
2022-09-21T13:16:23.966Z,16.00
2022-09-21T13:18:55.796Z,16.10
2022-09-21T13:21:27.996Z,15.90
2022-09-21T13:23:58.923Z,15.60
2022-09-21T13:26:49.346Z,15.50
2022-09-21T13:29:19.094Z,15.40
2022-09-21T13:31:57.393Z,15.10
2022-09-21T13:34:29.530Z,15.00
2022-09-21T13:37:11.610Z,14.70
2022-09-21T13:39:44.702Z,14.50
2022-09-21T13:42:29.558Z,14.50
2022-09-21T13:45:31.514Z,14.40
2022-09-21T13:48:01.172Z,14.30
2022-09-21T13:50:37.175Z,14.30
2022-09-21T13:53:11.055Z,14.30
2022-09-21T13:55:39.118Z,14.50
2022-09-21T13:58:25.178Z,14.70
2022-09-21T14:00:58.822Z,14.70
2022-09-21T14:03:25.514Z,14.80
2022-09-21T14:05:54.160Z,14.70
2022-09-21T14:08:35.723Z,14.60
2022-09-21T14:11:10.232Z,14.50
2022-09-21T14:13:36.916Z,14.50
2022-09-21T14:16:22.658Z,14.50
2022-09-21T14:18:49.760Z,14.50
2022-09-21T14:21:17.664Z,14.50
2022-09-21T14:24:05.094Z,14.50
2022-09-21T14:26:34.012Z,14.30
2022-09-21T14:29:20.945Z,14.30
2022-09-21T14:31:48.318Z,14.20
2022-09-21T14:34:23.244Z,14.30
2022-09-21T14:36:52.545Z,14.30
2022-09-21T14:39:21.446Z,14.30
2022-09-21T14:41:49.695Z,14.30
2022-09-21T14:44:29.134Z,14.20
2022-09-21T14:47:09.617Z,14.10
2022-09-21T14:49:36.312Z,13.90
2022-09-21T14:52:31.154Z,14.00
2022-09-21T14:55:05.015Z,14.10
2022-09-21T14:57:35.364Z,14.10
2022-09-21T15:00:20.982Z,14.10
2022-09-21T15:03:05.612Z,14.20
2022-09-21T15:05:41.759Z,14.20
2022-09-21T15:08:46.211Z,14.10
2022-09-21T15:11:20.476Z,14.00
2022-09-21T15:14:11.200Z,13.90
2022-09-21T15:16:47.115Z,13.90
2022-09-21T15:19:16.297Z,13.80
2022-09-21T15:21:51.049Z,13.80
2022-09-21T15:24:18.029Z,13.80
2022-09-21T15:26:45.135Z,13.80
2022-09-21T15:29:26.525Z,13.80
2022-09-21T15:31:53.545Z,13.80
2022-09-21T15:34:21.432Z,13.70
2022-09-21T15:36:50.958Z,13.70
2022-09-21T15:39:21.868Z,13.70
2022-09-21T15:41:50.665Z,13.70
2022-09-21T15:44:21.413Z,13.70
2022-09-21T15:46:53.328Z,14.10
2022-09-21T15:49:23.769Z,14.10
2022-09-21T15:51:59.142Z,13.90
2022-09-21T15:54:39.177Z,13.70
2022-09-21T15:57:22.265Z,13.50
2022-09-21T15:59:48.982Z,13.40
2022-09-21T16:02:22.297Z,13.30
2022-09-21T16:04:50.865Z,13.20
2022-09-21T16:07:32.763Z,13.10
2022-09-21T16:09:59.857Z,13.00
2022-09-21T16:12:26.503Z,12.90
2022-09-21T16:15:00.739Z,12.80
2022-09-21T16:17:35.656Z,12.70
2022-09-21T16:20:14.621Z,12.60
2022-09-21T16:22:48.901Z,12.60
2022-09-21T16:25:30.143Z,12.40
2022-09-21T16:28:00.248Z,12.30
2022-09-21T16:30:40.207Z,12.20
2022-09-21T16:33:25.584Z,12.10
2022-09-21T16:35:52.367Z,12.00
2022-09-21T16:38:20.365Z,11.90
2022-09-21T16:40:47.175Z,11.80
2022-09-21T16:43:15.371Z,11.70
2022-09-21T16:45:45.120Z,11.60
2022-09-21T16:48:13.982Z,11.50
2022-09-21T16:50:44.750Z,11.50
2022-09-21T16:53:13.981Z,11.40
2022-09-21T16:55:44.161Z,11.30
2022-09-21T16:58:14.860Z,11.20
2022-09-21T17:00:44.114Z,11.10
2022-09-21T17:03:11.548Z,11.00
2022-09-21T17:05:38.632Z,10.90
2022-09-21T17:08:07.606Z,10.80
2022-09-21T17:10:39.930Z,10.70
2022-09-21T17:13:09.201Z,10.60
2022-09-21T17:15:37.329Z,10.50
2022-09-21T17:18:06.322Z,10.40
2022-09-21T17:20:35.521Z,10.30
2022-09-21T17:23:06.110Z,10.30
2022-09-21T17:25:35.715Z,10.20
2022-09-21T17:28:06.648Z,10.10
2022-09-21T17:30:37.057Z,10.00
2022-09-21T17:33:04.738Z,9.90
2022-09-21T17:35:34.089Z,9.90
2022-09-21T17:38:04.878Z,9.80
2022-09-21T17:40:33.394Z,9.70
2022-09-21T17:43:21.526Z,9.60
2022-09-21T17:45:52.836Z,9.60
2022-09-21T17:48:21.255Z,9.60
2022-09-21T17:50:49.164Z,9.50
2022-09-21T17:53:34.572Z,9.40
2022-09-21T17:56:16.600Z,9.40
2022-09-21T17:58:49.551Z,9.30
2022-09-21T18:01:33.877Z,9.20
2022-09-21T18:04:00.916Z,9.10
2022-09-21T18:06:28.510Z,9.10
2022-09-21T18:08:55.937Z,9.10
2022-09-21T18:11:36.298Z,9.00
2022-09-21T18:14:08.895Z,8.90
2022-09-21T18:16:40.063Z,8.90
2022-09-21T18:19:22.472Z,8.80
2022-09-21T18:21:52.674Z,8.80
2022-09-21T18:24:20.812Z,8.80
2022-09-21T18:26:49.155Z,8.80
2022-09-21T18:29:38.984Z,8.70
2022-09-21T18:32:25.800Z,8.70
2022-09-21T18:34:58.557Z,8.70
2022-09-21T18:37:41.235Z,8.60
2022-09-21T18:40:25.825Z,8.60
2022-09-21T18:43:08.458Z,8.50
2022-09-21T18:45:43.762Z,8.50
2022-09-21T18:48:22.551Z,8.40
2022-09-21T18:50:49.162Z,8.40
2022-09-21T18:53:15.795Z,8.30
2022-09-21T18:55:42.647Z,8.30
2022-09-21T18:58:10.297Z,8.30
2022-09-21T19:00:37.123Z,8.20
2022-09-21T19:03:16.909Z,8.20
2022-09-21T19:06:14.360Z,8.10
2022-09-21T19:08:46.968Z,8.00
2022-09-21T19:11:18.446Z,8.00
2022-09-21T19:13:48.507Z,8.00
2022-09-21T19:16:29.635Z,7.90
2022-09-21T19:19:18.226Z,7.80
2022-09-21T19:21:45.821Z,7.80
2022-09-21T19:24:25.390Z,7.70
2022-09-21T19:26:52.093Z,7.70
2022-09-21T19:29:29.809Z,7.70
2022-09-21T19:31:56.550Z,7.60
2022-09-21T19:34:23.298Z,7.60
2022-09-21T19:36:50.055Z,7.60
2022-09-21T19:39:17.039Z,7.50
2022-09-21T19:41:57.014Z,7.50
2022-09-21T19:44:27.762Z,7.50
2022-09-21T19:47:02.993Z,7.50
2022-09-21T19:49:50.189Z,7.40
2022-09-21T19:52:18.494Z,7.40
2022-09-21T19:55:04.378Z,7.40
2022-09-21T19:57:49.959Z,7.30
2022-09-21T20:00:17.784Z,7.30
2022-09-21T20:02:49.021Z,7.20
2022-09-21T20:05:22.410Z,7.10
2022-09-21T20:07:53.099Z,7.10
2022-09-21T20:10:22.915Z,7.10
2022-09-21T20:13:12.625Z,7.00
2022-09-21T20:15:42.371Z,7.00
2022-09-21T20:18:12.021Z,7.00
2022-09-21T20:20:38.974Z,6.90
2022-09-21T20:23:05.786Z,6.90
2022-09-21T20:25:35.247Z,6.90
2022-09-21T20:28:03.840Z,6.90
2022-09-21T20:30:32.823Z,6.90
2022-09-21T20:33:02.128Z,6.80
2022-09-21T20:35:30.679Z,6.70
2022-09-21T20:38:02.170Z,6.70
2022-09-21T20:40:31.238Z,6.70
2022-09-21T20:42:59.343Z,6.70
2022-09-21T20:45:26.063Z,6.70
2022-09-21T20:47:54.012Z,6.70
2022-09-21T20:50:22.121Z,6.70
2022-09-21T20:52:49.108Z,6.70
2022-09-21T20:55:20.383Z,6.60
2022-09-21T20:57:47.298Z,6.60
2022-09-21T21:00:14.945Z,6.50
2022-09-21T21:02:41.975Z,6.50
2022-09-21T21:05:10.549Z,6.50
2022-09-21T21:07:37.398Z,6.40
2022-09-21T21:10:04.293Z,6.50
2022-09-21T21:12:31.184Z,6.40
2022-09-21T21:14:59.126Z,6.40
2022-09-21T21:17:25.817Z,6.40
2022-09-21T21:19:52.484Z,6.30
2022-09-21T21:22:19.105Z,6.30
2022-09-21T21:24:45.819Z,6.30
2022-09-21T21:27:14.902Z,6.30
2022-09-21T21:29:42.386Z,6.30
2022-09-21T21:32:09.205Z,6.20
2022-09-21T21:34:35.989Z,6.20
2022-09-21T21:37:02.781Z,6.10
2022-09-21T21:39:30.568Z,6.10
2022-09-21T21:41:57.540Z,6.10
2022-09-21T21:44:24.299Z,6.10
2022-09-21T21:46:53.436Z,6.00
2022-09-21T21:49:20.883Z,6.00
2022-09-21T21:51:49.317Z,5.90
2022-09-21T21:54:22.931Z,5.90
2022-09-21T21:56:50.410Z,5.90
2022-09-21T21:59:18.109Z,5.90
2022-09-21T22:01:45.057Z,5.90
2022-09-21T22:04:11.877Z,5.80
2022-09-21T22:06:39.142Z,5.80
2022-09-21T22:09:07.046Z,5.70
2022-09-21T22:11:34.839Z,5.70
2022-09-21T22:14:02.536Z,5.70
2022-09-21T22:16:30.269Z,5.70
2022-09-21T22:18:57.573Z,5.60
2022-09-21T22:21:28.097Z,5.50
2022-09-21T22:23:55.790Z,5.50
2022-09-21T22:26:22.841Z,5.50
2022-09-21T22:28:51.668Z,5.50
2022-09-21T22:31:20.104Z,5.40
2022-09-21T22:33:47.117Z,5.40
2022-09-21T22:36:13.753Z,5.40
2022-09-21T22:38:42.894Z,5.40
2022-09-21T22:41:18.026Z,5.40
2022-09-21T22:43:45.683Z,5.40
2022-09-21T22:46:12.617Z,5.40
2022-09-21T22:48:39.447Z,5.40
2022-09-21T22:51:06.110Z,5.40
2022-09-21T22:53:32.858Z,5.30
2022-09-21T22:56:06.836Z,5.30
2022-09-21T22:58:34.747Z,5.30
2022-09-21T23:01:06.151Z,5.30
2022-09-21T23:03:33.585Z,5.30
2022-09-21T23:06:00.618Z,5.30
2022-09-21T23:08:28.282Z,5.20
2022-09-21T23:10:55.388Z,5.20
2022-09-21T23:13:22.100Z,5.20
2022-09-21T23:15:49.082Z,5.20
2022-09-21T23:18:16.244Z,5.20
2022-09-21T23:20:43.155Z,5.10
2022-09-21T23:23:10.657Z,5.10
2022-09-21T23:25:37.407Z,5.10
2022-09-21T23:28:04.227Z,5.10
2022-09-21T23:30:30.988Z,5.10
2022-09-21T23:32:57.643Z,5.00
2022-09-21T23:35:24.371Z,5.00
2022-09-21T23:37:51.067Z,5.00
2022-09-21T23:40:17.967Z,5.00
2022-09-21T23:42:44.570Z,5.00
2022-09-21T23:45:11.271Z,4.90
2022-09-21T23:47:37.931Z,4.90
2022-09-21T23:50:04.768Z,4.90
2022-09-21T23:52:31.387Z,4.90
2022-09-21T23:54:58.038Z,4.90
2022-09-21T23:57:24.660Z,4.90
2022-09-21T23:59:52.660Z,4.90
